South Wheelock, Vermont
Current Conditions -  °F | °C
As of 12:15 PM on Saturday 20 Dec 2014 (Local Time) from KCDA Reporting Station
Clear Clear  
Wind Chill: -5°   Ceiling: Unl
Heat Index: -5°   Visibility: 10mi
Dew Point: -11°   Wind: 0mph
Humidity: 66%   Direction: NA
Pressure: 30.24"   Gusts: NA
Location:  44.5541°N, 72.0612°W
Report Text: KCDA 201715Z AUTO 00000KT 10SM CLR M05/M11 A3024 RMK AO2 T10531108
Loading
Personal Weather Stations






























Interactive Weather Map New forecast layout! Learn more

10-Day Weather Forecast

Advertisements
Track Severe Weather on mobile